createdAt,value
2018-02-14T00:01:06.345Z,-1.32
2018-02-14T00:02:18.898Z,-1.36
2018-02-14T00:03:29.033Z,-1.4
2018-02-14T00:04:39.156Z,-1.42
2018-02-14T00:05:49.285Z,-1.32
2018-02-14T00:06:59.416Z,-1.36
2018-02-14T00:08:09.664Z,-1.39
2018-02-14T00:09:19.807Z,-1.39
2018-02-14T00:10:30.025Z,-1.36
2018-02-14T00:11:40.283Z,-1.44
2018-02-14T00:12:50.483Z,-1.47
2018-02-14T00:14:00.342Z,-1.52
2018-02-14T00:15:10.491Z,-1.49
2018-02-14T00:16:20.372Z,-1.47
2018-02-14T00:17:30.496Z,-1.43
2018-02-14T00:18:40.349Z,-1.42
2018-02-14T00:19:50.500Z,-1.49
2018-02-14T00:21:00.610Z,-1.4
2018-02-14T00:22:10.750Z,-1.46
2018-02-14T00:23:20.948Z,-1.44
2018-02-14T00:24:31.149Z,-1.42
2018-02-14T00:25:41.358Z,-1.39
2018-02-14T00:26:51.523Z,-1.42
2018-02-14T00:28:01.879Z,-1.44
2018-02-14T00:29:12.004Z,-1.53
2018-02-14T00:30:22.139Z,-1.52
2018-02-14T00:31:32.243Z,-1.61
2018-02-14T00:32:42.358Z,-1.6
2018-02-14T00:33:52.519Z,-1.6
2018-02-14T00:35:02.380Z,-1.57
2018-02-14T00:36:12.510Z,-1.52
2018-02-14T00:37:22.284Z,-1.61
2018-02-14T00:38:32.405Z,-1.62
2018-02-14T00:39:42.605Z,-1.6
2018-02-14T00:40:52.826Z,-1.67
2018-02-14T00:42:03.009Z,-1.58
2018-02-14T00:43:12.856Z,-1.57
2018-02-14T00:44:23.078Z,-1.54
2018-02-14T00:45:33.216Z,-1.52
2018-02-14T00:46:43.406Z,-1.49
2018-02-14T00:47:53.575Z,-1.46
2018-02-14T00:49:03.936Z,-1.49
2018-02-14T00:50:13.437Z,-1.44
2018-02-14T00:51:23.584Z,-1.4
2018-02-14T00:52:33.471Z,-1.42
2018-02-14T00:53:43.599Z,-1.42
2018-02-14T00:54:53.703Z,-1.33
2018-02-14T00:56:03.844Z,-1.23
2018-02-14T00:57:13.970Z,-1.26
2018-02-14T00:58:24.296Z,-1.16
2018-02-14T00:59:34.531Z,-1.21
2018-02-14T01:00:44.390Z,-1.2
2018-02-14T01:01:54.505Z,-1.31
2018-02-14T01:03:04.632Z,-1.18
2018-02-14T01:04:14.742Z,-1.21
2018-02-14T01:05:25.024Z,-1.23
2018-02-14T01:06:35.175Z,-1.16
2018-02-14T01:07:45.068Z,-1.12
2018-02-14T01:08:55.239Z,-1.2
2018-02-14T01:10:05.510Z,-1.23
2018-02-14T01:11:15.682Z,-1.23
2018-02-14T01:12:25.537Z,-1.2
2018-02-14T01:13:35.386Z,-1.28
2018-02-14T01:14:45.508Z,-1.29
2018-02-14T01:15:55.626Z,-1.26
2018-02-14T01:17:05.756Z,-1.25
2018-02-14T01:18:15.861Z,-1.25
2018-02-14T01:19:25.984Z,-1.2
2018-02-14T01:20:36.087Z,-1.16
2018-02-14T01:21:45.944Z,-1.07
2018-02-14T01:22:56.048Z,-1.14
2018-02-14T01:24:06.183Z,-1.13
2018-02-14T01:25:16.570Z,-1.1
2018-02-14T01:26:26.696Z,-1.06
2018-02-14T01:27:36.887Z,-1.07
2018-02-14T01:28:47.090Z,-1.09
2018-02-14T01:29:57.242Z,-1.05
2018-02-14T01:31:07.523Z,-1.06
2018-02-14T01:32:17.725Z,-1
2018-02-14T01:33:27.886Z,-1.16
2018-02-14T01:34:38.009Z,-1.14
2018-02-14T01:35:48.129Z,-1.26
2018-02-14T01:36:58.274Z,-1.25
2018-02-14T01:38:08.402Z,-1.31
2018-02-14T01:39:18.518Z,-1.39
2018-02-14T01:40:28.458Z,-1.32
2018-02-14T01:41:38.684Z,-1.43
2018-02-14T01:42:48.800Z,-1.32
2018-02-14T01:43:59.035Z,-1.39
2018-02-14T01:45:08.890Z,-1.35
2018-02-14T01:46:18.834Z,-1.43
2018-02-14T01:47:28.704Z,-1.4
2018-02-14T01:48:38.899Z,-1.43
2018-02-14T01:49:49.104Z,-1.43
2018-02-14T01:50:59.226Z,-1.47
2018-02-14T01:52:09.118Z,-1.47
2018-02-14T01:53:19.297Z,-1.39
2018-02-14T01:54:29.487Z,-1.46
2018-02-14T01:55:39.667Z,-1.44
2018-02-14T01:56:49.790Z,-1.35
2018-02-14T01:57:59.917Z,-1.21
2018-02-14T01:59:10.030Z,-1.28
2018-02-14T02:00:19.889Z,-1.21
2018-02-14T02:01:29.791Z,-1.21
2018-02-14T02:02:40.179Z,-1.25
2018-02-14T02:03:50.300Z,-1.23
2018-02-14T02:05:00.406Z,-1.18
2018-02-14T02:06:11.272Z,-1.13
2018-02-14T02:07:21.441Z,-1.21
2018-02-14T02:08:31.596Z,-1.13
2018-02-14T02:09:41.699Z,-1.14
2018-02-14T02:10:51.814Z,-1.13
2018-02-14T02:12:01.935Z,-1.1
2018-02-14T02:13:12.148Z,-1.07
2018-02-14T02:14:22.253Z,-1.1
2018-02-14T02:15:32.392Z,-1.05
2018-02-14T02:16:42.509Z,-1.1
2018-02-14T02:17:52.617Z,-1.06
2018-02-14T02:19:02.795Z,-1.07
2018-02-14T02:20:13.168Z,-1.06
2018-02-14T02:21:23.316Z,-1.06
2018-02-14T02:22:33.474Z,-1.07
2018-02-14T02:23:43.635Z,-1.06
2018-02-14T02:24:53.756Z,-1.02
2018-02-14T02:26:03.911Z,-1.05
2018-02-14T02:27:14.024Z,-1.13
2018-02-14T02:28:23.761Z,-1.13
2018-02-14T02:29:33.882Z,-1.12
2018-02-14T02:30:43.836Z,-1.09
2018-02-14T02:31:53.954Z,-1.05
2018-02-14T02:33:04.070Z,-1.13
2018-02-14T02:34:14.002Z,-1.1
2018-02-14T02:35:24.109Z,-1.16
2018-02-14T02:36:34.237Z,-1.23
2018-02-14T02:37:44.422Z,-1.25
2018-02-14T02:38:54.635Z,-1.31
2018-02-14T02:40:05.049Z,-1.39
2018-02-14T02:41:15.160Z,-1.4
2018-02-14T02:42:25.319Z,-1.43
2018-02-14T02:43:35.168Z,-1.4
2018-02-14T02:44:45.282Z,-1.36
2018-02-14T02:45:55.396Z,-1.57
2018-02-14T02:47:05.289Z,-1.36
2018-02-14T02:48:15.508Z,-1.47
2018-02-14T02:49:25.352Z,-1.5
2018-02-14T02:50:35.455Z,-1.44
2018-02-14T02:51:45.565Z,-1.43
2018-02-14T02:52:55.720Z,-1.47
2018-02-14T02:54:05.846Z,-1.52
2018-02-14T02:55:15.694Z,-1.49
2018-02-14T02:56:25.447Z,-1.54
2018-02-14T02:57:35.583Z,-1.54
2018-02-14T02:58:45.831Z,-1.6
2018-02-14T02:59:55.685Z,-1.57
2018-02-14T03:01:05.823Z,-1.62
2018-02-14T03:02:15.424Z,-1.54
2018-02-14T03:03:25.568Z,-1.58
2018-02-14T03:04:35.068Z,-1.6
2018-02-14T03:05:45.262Z,-1.64
2018-02-14T03:06:55.496Z,-1.61
2018-02-14T03:08:05.861Z,-1.58
2018-02-14T03:09:15.965Z,-1.61
2018-02-14T03:10:26.104Z,-1.6
2018-02-14T03:11:36.228Z,-1.64
2018-02-14T03:12:46.357Z,-1.65
2018-02-14T03:13:56.468Z,-1.67
2018-02-14T03:15:06.590Z,-1.64
2018-02-14T03:16:17.758Z,-1.65
2018-02-14T03:17:27.632Z,-1.75
2018-02-14T03:18:37.741Z,-1.68
2018-02-14T03:19:47.869Z,-1.68
2018-02-14T03:20:57.727Z,-1.6
2018-02-14T03:22:07.845Z,-1.64
2018-02-14T03:23:17.971Z,-1.62
2018-02-14T03:24:28.123Z,-1.67
2018-02-14T03:25:38.024Z,-1.7
2018-02-14T03:26:48.324Z,-1.68
2018-02-14T03:27:58.730Z,-1.68
2018-02-14T03:29:08.831Z,-1.67
2018-02-14T03:30:18.581Z,-1.71
2018-02-14T03:31:28.357Z,-1.8
2018-02-14T03:32:38.466Z,-1.85
2018-02-14T03:33:48.581Z,-1.92
2018-02-14T03:34:58.428Z,-2
2018-02-14T03:36:08.277Z,-1.98
2018-02-14T03:37:18.388Z,-2.04
2018-02-14T03:38:28.485Z,-2.1
2018-02-14T03:39:38.596Z,-2.06
2018-02-14T03:40:48.707Z,-2.07
2018-02-14T03:41:58.816Z,-2.12
2018-02-14T03:43:08.422Z,-2.25
2018-02-14T03:44:18.553Z,-2.24
2018-02-14T03:45:28.662Z,-2.25
2018-02-14T03:46:38.770Z,-2.39
2018-02-14T03:47:49.047Z,-2.39
2018-02-14T03:48:58.894Z,-2.34
2018-02-14T03:50:09.002Z,-2.4
2018-02-14T03:51:19.114Z,-2.4
2018-02-14T03:52:29.229Z,-2.29
2018-02-14T03:53:39.432Z,-2.19
2018-02-14T03:54:49.584Z,-2.16
2018-02-14T03:55:59.817Z,-2.24
2018-02-14T03:57:09.931Z,-2.25
2018-02-14T03:58:20.029Z,-2.33
2018-02-14T03:59:31.117Z,-2.44
2018-02-14T04:00:41.499Z,-2.37
2018-02-14T04:01:51.618Z,-2.47
2018-02-14T04:03:02.431Z,-2.46
2018-02-14T04:04:12.566Z,-2.55
2018-02-14T04:05:22.675Z,-2.54
2018-02-14T04:06:32.787Z,-2.54
2018-02-14T04:07:42.924Z,-2.5
2018-02-14T04:08:52.892Z,-2.52
2018-02-14T04:10:03.070Z,-2.57
2018-02-14T04:11:13.284Z,-2.57
2018-02-14T04:12:23.569Z,-2.54
2018-02-14T04:13:33.789Z,-2.57
2018-02-14T04:14:43.982Z,-2.6
2018-02-14T04:15:54.171Z,-2.57
2018-02-14T04:17:04.298Z,-2.7
2018-02-14T04:18:14.402Z,-2.71
2018-02-14T04:19:24.507Z,-2.65
2018-02-14T04:20:34.634Z,-2.62
2018-02-14T04:21:44.814Z,-2.74
2018-02-14T04:22:54.953Z,-2.65
2018-02-14T04:24:04.814Z,-2.65
2018-02-14T04:25:15.023Z,-2.62
2018-02-14T04:26:25.184Z,-2.68
2018-02-14T04:27:35.392Z,-2.64
2018-02-14T04:28:45.637Z,-2.77
2018-02-14T04:29:55.842Z,-2.71
2018-02-14T04:31:05.985Z,-2.8
2018-02-14T04:32:16.241Z,-2.73
2018-02-14T04:33:26.138Z,-2.74
2018-02-14T04:34:36.264Z,-2.86
2018-02-14T04:35:46.179Z,-2.91
2018-02-14T04:36:56.029Z,-2.8
2018-02-14T04:38:06.123Z,-2.99
2018-02-14T04:39:16.232Z,-2.86
2018-02-14T04:40:26.349Z,-2.99
2018-02-14T04:41:36.467Z,-2.98
2018-02-14T04:42:46.576Z,-2.97
2018-02-14T04:43:56.685Z,-2.89
2018-02-14T04:45:06.917Z,-2.89
2018-02-14T04:46:17.045Z,-2.97
2018-02-14T04:47:27.282Z,-2.91
2018-02-14T04:48:37.465Z,-2.97
2018-02-14T04:49:47.630Z,-2.98
2018-02-14T04:50:57.536Z,-2.98
2018-02-14T04:52:07.638Z,-2.98
2018-02-14T04:53:17.766Z,-2.99
2018-02-14T04:54:27.892Z,-2.98
2018-02-14T04:55:38.027Z,-3.04
2018-02-14T04:56:48.144Z,-3.04
2018-02-14T04:57:58.377Z,-3.02
2018-02-14T04:59:08.620Z,-2.99
2018-02-14T05:00:18.964Z,-3.09
2018-02-14T05:01:29.065Z,-3.1
2018-02-14T05:02:39.175Z,-3.1
2018-02-14T05:03:49.516Z,-3.01
2018-02-14T05:04:59.674Z,-3.02
2018-02-14T05:06:09.928Z,-2.99
2018-02-14T05:07:20.064Z,-3.05
2018-02-14T05:08:30.227Z,-3.09
2018-02-14T05:09:40.574Z,-2.97
2018-02-14T05:10:50.871Z,-3.01
2018-02-14T05:12:01.007Z,-2.94
2018-02-14T05:13:11.243Z,-2.88
2018-02-14T05:14:21.083Z,-2.92
2018-02-14T05:15:31.233Z,-2.89
2018-02-14T05:16:41.346Z,-2.94
2018-02-14T05:17:51.574Z,-2.88
2018-02-14T05:19:02.755Z,-2.86
2018-02-14T05:20:12.649Z,-2.94
2018-02-14T05:21:22.509Z,-2.94
2018-02-14T05:22:32.638Z,-3.02
2018-02-14T05:23:42.798Z,-2.97
2018-02-14T05:24:52.907Z,-3.08
2018-02-14T05:26:03.021Z,-3.09
2018-02-14T05:27:13.136Z,-3.13
2018-02-14T05:28:23.272Z,-3.04
2018-02-14T05:29:33.489Z,-3.08
2018-02-14T05:30:43.605Z,-3.13
2018-02-14T05:31:53.736Z,-3.19
2018-02-14T05:33:04.034Z,-3.12
2018-02-14T05:34:14.200Z,-3.17
2018-02-14T05:35:24.420Z,-3.19
2018-02-14T05:36:34.265Z,-3.16
2018-02-14T05:37:44.428Z,-3.13
2018-02-14T05:38:54.547Z,-3.16
2018-02-14T05:40:04.678Z,-3.1
2018-02-14T05:41:14.805Z,-3.19
2018-02-14T05:42:24.806Z,-3.13
2018-02-14T05:43:36.022Z,-3.16
2018-02-14T05:44:46.210Z,-3.27
2018-02-14T05:45:56.493Z,-3.22
2018-02-14T05:47:06.701Z,-3.22
2018-02-14T05:48:16.914Z,-3.3
2018-02-14T05:49:27.105Z,-3.27
2018-02-14T05:50:37.306Z,-3.27
2018-02-14T05:51:47.543Z,-3.22
2018-02-14T05:52:57.435Z,-3.23
2018-02-14T05:54:07.552Z,-3.22
2018-02-14T05:55:17.701Z,-3.16
2018-02-14T05:56:27.848Z,-3.19
2018-02-14T05:57:37.730Z,-3.1
2018-02-14T05:58:47.880Z,-3.01
2018-02-14T05:59:58.080Z,-2.89
2018-02-14T06:01:08.198Z,-2.88
2018-02-14T06:02:18.310Z,-2.77
2018-02-14T06:03:28.458Z,-2.74
2018-02-14T06:04:38.511Z,-2.83
2018-02-14T06:05:48.647Z,-2.7
2018-02-14T06:06:58.791Z,-2.76
2018-02-14T06:08:08.902Z,-2.79
2018-02-14T06:09:19.213Z,-2.77
2018-02-14T06:10:29.309Z,-2.86
2018-02-14T06:11:39.526Z,-2.89
2018-02-14T06:12:49.741Z,-2.88
2018-02-14T06:13:59.900Z,-2.84
2018-02-14T06:15:09.774Z,-2.92
2018-02-14T06:16:19.870Z,-2.98
2018-02-14T06:17:30.019Z,-2.99
2018-02-14T06:18:40.161Z,-2.91
2018-02-14T06:19:50.390Z,-2.95
2018-02-14T06:21:00.534Z,-2.94
2018-02-14T06:22:10.885Z,-2.98
2018-02-14T06:23:20.617Z,-2.98
2018-02-14T06:24:30.743Z,-3.01
2018-02-14T06:25:40.363Z,-2.97
2018-02-14T06:26:50.489Z,-2.98
2018-02-14T06:28:00.601Z,-3.01
2018-02-14T06:29:10.389Z,-3.01
2018-02-14T06:30:20.467Z,-2.94
2018-02-14T06:31:30.631Z,-2.98
2018-02-14T06:32:40.844Z,-3.08
2018-02-14T06:33:50.945Z,-3.04
2018-02-14T06:35:01.055Z,-3.08
2018-02-14T06:36:10.974Z,-3.1
2018-02-14T06:37:21.092Z,-3.13
2018-02-14T06:38:31.235Z,-3.17
2018-02-14T06:39:41.354Z,-3.13
2018-02-14T06:40:51.469Z,-3.13
2018-02-14T06:42:01.613Z,-3.1
2018-02-14T06:43:11.560Z,-3.04
2018-02-14T06:44:21.720Z,-3.08
2018-02-14T06:45:31.892Z,-3.02
2018-02-14T06:46:42.356Z,-3.02
2018-02-14T06:47:52.482Z,-3.02
2018-02-14T06:49:02.661Z,-3.02
2018-02-14T06:50:12.569Z,-2.98
2018-02-14T06:51:22.687Z,-2.97
2018-02-14T06:52:32.818Z,-3.09
2018-02-14T06:53:42.965Z,-2.97
2018-02-14T06:54:53.104Z,-3.02
2018-02-14T06:56:03.254Z,-2.97
2018-02-14T06:57:13.199Z,-3.02
2018-02-14T06:58:23.368Z,-2.95
2018-02-14T06:59:33.513Z,-2.97
2018-02-14T07:00:43.789Z,-2.98
2018-02-14T07:01:53.996Z,-2.94
2018-02-14T07:03:05.101Z,-2.91
2018-02-14T07:04:15.205Z,-2.94
2018-02-14T07:05:25.360Z,-2.88
2018-02-14T07:06:35.584Z,-2.94
2018-02-14T07:07:45.685Z,-2.83
2018-02-14T07:08:55.562Z,-2.81
2018-02-14T07:10:05.672Z,-2.77
2018-02-14T07:11:15.835Z,-2.44
2018-02-14T07:12:26.900Z,-1.88
2018-02-14T07:13:37.005Z,-1.26
2018-02-14T07:14:48.092Z,-0.81
2018-02-14T07:15:58.192Z,-0.13
2018-02-14T07:17:08.382Z,0.42
2018-02-14T07:18:19.511Z,0.88
2018-02-14T07:19:30.120Z,1.42
2018-02-14T07:20:39.944Z,1.84
2018-02-14T07:21:50.278Z,2.33
2018-02-14T07:23:00.437Z,2.71
2018-02-14T07:24:10.685Z,2.92
2018-02-14T07:25:20.826Z,3.28
2018-02-14T07:26:30.670Z,3.72
2018-02-14T07:27:40.541Z,3.98
2018-02-14T07:28:50.659Z,4.22
2018-02-14T07:30:00.878Z,4.55
2018-02-14T07:31:11.016Z,4.71
2018-02-14T07:32:21.125Z,4.95
2018-02-14T07:33:31.292Z,5.18
2018-02-14T07:34:41.160Z,5.29
2018-02-14T07:35:51.561Z,5.54
2018-02-14T07:37:01.700Z,5.82
2018-02-14T07:38:11.879Z,6.11
2018-02-14T07:39:22.173Z,6.34
2018-02-14T07:40:32.300Z,6.57
2018-02-14T07:41:42.231Z,6.84
2018-02-14T07:42:52.403Z,6.96
2018-02-14T07:44:03.699Z,7.13
2018-02-14T07:45:13.875Z,7.33
2018-02-14T07:46:23.756Z,7.39
2018-02-14T07:47:33.691Z,7.67
2018-02-14T07:48:43.550Z,7.84
2018-02-14T07:49:53.737Z,7.8
2018-02-14T07:51:03.884Z,7.87
2018-02-14T07:52:14.068Z,8.06
2018-02-14T07:53:23.618Z,8.21
2018-02-14T07:54:33.742Z,8.25
2018-02-14T07:55:43.853Z,8.31
2018-02-14T07:56:53.997Z,8.55
2018-02-14T07:58:04.242Z,8.6
2018-02-14T07:59:14.400Z,8.66
2018-02-14T08:00:24.533Z,8.8
2018-02-14T08:01:34.796Z,9.04
2018-02-14T08:02:44.699Z,9.17
2018-02-14T08:03:54.943Z,9.35
2018-02-14T08:05:04.906Z,9.55
2018-02-14T08:06:15.020Z,9.52
2018-02-14T08:07:25.192Z,9.63
2018-02-14T08:08:35.566Z,9.75
2018-02-14T08:09:45.682Z,9.74
2018-02-14T08:10:55.793Z,9.77
2018-02-14T08:12:05.997Z,9.85
2018-02-14T08:13:17.087Z,9.81
2018-02-14T08:14:27.228Z,9.8
2018-02-14T08:15:37.358Z,9.77
2018-02-14T08:16:47.491Z,9.77
2018-02-14T08:17:57.597Z,9.75
2018-02-14T08:19:07.720Z,9.71
2018-02-14T08:20:17.689Z,9.67
2018-02-14T08:21:27.860Z,9.59
2018-02-14T08:22:37.976Z,9.55
2018-02-14T08:23:48.142Z,9.55
2018-02-14T08:24:58.329Z,9.62
2018-02-14T08:26:08.615Z,9.78
2018-02-14T08:27:18.490Z,10.15
2018-02-14T08:28:28.622Z,10.34
2018-02-14T08:29:38.825Z,10.45
2018-02-14T08:30:49.021Z,10.66
2018-02-14T08:31:58.950Z,10.83
2018-02-14T08:33:08.860Z,11.15
2018-02-14T08:34:19.103Z,11.33
2018-02-14T08:35:29.342Z,11.43
2018-02-14T08:36:39.461Z,11.89
2018-02-14T08:37:49.645Z,12.05
2018-02-14T08:38:59.793Z,12.29
2018-02-14T08:40:09.949Z,12.38
2018-02-14T08:41:20.100Z,12.59
2018-02-14T08:42:30.313Z,12.68
2018-02-14T08:43:40.471Z,12.85
2018-02-14T08:44:50.680Z,12.96
2018-02-14T08:46:00.891Z,12.9
2018-02-14T08:47:10.791Z,13.01
2018-02-14T08:48:20.956Z,13.06
2018-02-14T08:49:31.103Z,13.04
2018-02-14T08:50:41.225Z,13.23
2018-02-14T08:51:51.340Z,13.23
2018-02-14T08:53:01.478Z,13.23
2018-02-14T08:54:11.656Z,13.36
2018-02-14T08:55:21.554Z,13.33
2018-02-14T08:56:31.702Z,13.58
2018-02-14T08:57:41.935Z,13.64
2018-02-14T08:58:52.117Z,13.59
2018-02-14T09:00:02.259Z,13.64
2018-02-14T09:01:12.401Z,13.82
2018-02-14T09:02:23.517Z,13.89
2018-02-14T09:03:33.710Z,14.14
2018-02-14T09:04:43.933Z,14.09
2018-02-14T09:05:53.829Z,14.03
2018-02-14T09:07:03.738Z,14.25
2018-02-14T09:08:45.785Z,14.6
2018-02-14T09:09:56.082Z,14.72
2018-02-14T09:11:06.255Z,14.6
2018-02-14T09:12:16.510Z,14.54
2018-02-14T09:13:26.383Z,14.51
2018-02-14T09:14:37.486Z,14.6
2018-02-14T09:15:47.352Z,14.74
2018-02-14T09:16:57.496Z,14.87
2018-02-14T09:18:07.621Z,14.95
2018-02-14T09:19:17.800Z,14.96
2018-02-14T09:20:27.982Z,15.03
2018-02-14T09:21:38.010Z,15.06
2018-02-14T09:22:48.172Z,14.99
2018-02-14T09:23:58.298Z,14.88
2018-02-14T09:25:08.500Z,14.88
2018-02-14T09:26:18.723Z,14.81
2018-02-14T09:27:28.990Z,14.77
2018-02-14T09:28:39.132Z,14.75
2018-02-14T09:29:48.990Z,14.72
2018-02-14T09:30:59.139Z,14.72
2018-02-14T09:32:09.018Z,14.78
2018-02-14T09:33:19.173Z,14.78
2018-02-14T09:34:29.301Z,14.78
2018-02-14T09:35:39.584Z,14.85
2018-02-14T09:36:49.774Z,14.93
2018-02-14T09:37:59.638Z,15.11
2018-02-14T09:39:09.783Z,15.08
2018-02-14T09:40:19.934Z,15.03
2018-02-14T09:41:30.087Z,14.96
2018-02-14T09:42:41.247Z,14.87
2018-02-14T09:43:54.986Z,14.8
2018-02-14T09:46:24.446Z,14.65
2018-02-14T09:47:35.828Z,14.58
2018-02-14T09:48:46.102Z,14.4
2018-02-14T09:49:56.258Z,14.19
2018-02-14T09:51:06.492Z,14.25
2018-02-14T09:53:30.181Z,14.26
2018-02-14T09:54:40.746Z,14.21
2018-02-14T09:55:52.153Z,14.09
2018-02-14T09:57:02.389Z,14.13
2018-02-14T09:58:13.752Z,14.02
2018-02-14T09:59:24.981Z,14.11
2018-02-14T10:00:37.344Z,14.1
2018-02-14T10:03:03.179Z,14.02
2018-02-14T10:04:15.958Z,13.92
2018-02-14T10:05:26.221Z,13.91
2018-02-14T10:06:36.472Z,13.94
2018-02-14T10:07:46.707Z,14.02
2018-02-14T10:08:56.899Z,14.11
2018-02-14T10:10:07.078Z,14.18
2018-02-14T10:11:17.373Z,14.28
2018-02-14T10:12:27.269Z,14.34
2018-02-14T10:13:37.487Z,14.45
2018-02-14T10:14:47.388Z,14.34
2018-02-14T10:15:57.548Z,14.24
2018-02-14T10:17:07.690Z,14.09
2018-02-14T10:18:17.827Z,14.14
2018-02-14T10:19:27.960Z,14.1
2018-02-14T10:20:38.223Z,14.11
2018-02-14T10:21:48.405Z,14.03
2018-02-14T10:22:58.602Z,13.85
2018-02-14T10:24:08.475Z,13.76
2018-02-14T10:25:19.594Z,13.67
2018-02-14T10:26:29.708Z,13.63
2018-02-14T10:27:39.945Z,13.56
2018-02-14T10:28:50.110Z,13.46
2018-02-14T10:30:00.356Z,13.55
2018-02-14T10:31:10.639Z,13.56
2018-02-14T10:32:20.855Z,13.63
2018-02-14T10:33:31.047Z,13.89
2018-02-14T10:34:41.250Z,14.16
2018-02-14T10:35:51.408Z,14.19
2018-02-14T10:37:01.295Z,14.21
2018-02-14T10:38:11.517Z,14.21
2018-02-14T10:39:21.706Z,14.19
2018-02-14T10:40:31.980Z,14.18
2018-02-14T10:41:41.900Z,14.13
2018-02-14T10:42:52.084Z,14.1
2018-02-14T10:44:02.224Z,14.14
2018-02-14T10:45:12.384Z,14.02
2018-02-14T10:46:22.543Z,13.91
2018-02-14T10:47:32.422Z,13.92
2018-02-14T10:48:42.602Z,13.99
2018-02-14T10:49:52.758Z,13.99
2018-02-14T10:51:02.947Z,14.1
2018-02-14T10:52:12.919Z,14.14
2018-02-14T10:53:23.075Z,14.1
2018-02-14T10:54:33.306Z,14.1
2018-02-14T10:55:43.555Z,14.34
2018-02-14T10:56:53.708Z,14.51
2018-02-14T10:58:03.867Z,14.5
2018-02-14T10:59:14.011Z,14.51
2018-02-14T11:00:24.186Z,14.5
2018-02-14T11:01:35.358Z,14.52
2018-02-14T11:02:45.498Z,14.67
2018-02-14T11:03:55.631Z,14.7
2018-02-14T11:05:05.768Z,14.84
2018-02-14T11:06:15.682Z,14.95
2018-02-14T11:07:25.577Z,14.95
2018-02-14T11:08:35.743Z,14.93
2018-02-14T11:09:45.626Z,14.83
2018-02-14T11:10:55.789Z,14.81
2018-02-14T11:12:06.062Z,14.78
2018-02-14T11:13:16.233Z,14.81
2018-02-14T11:14:26.432Z,14.7
2018-02-14T11:15:36.648Z,14.6
2018-02-14T11:16:46.573Z,14.51
2018-02-14T11:17:56.742Z,14.36
2018-02-14T11:19:06.901Z,14.36
2018-02-14T11:20:16.807Z,14.52
2018-02-14T11:21:26.992Z,14.54
2018-02-14T11:22:37.244Z,14.5
2018-02-14T11:23:47.381Z,14.45
2018-02-14T11:24:57.540Z,14.56
2018-02-14T11:26:07.779Z,14.51
2018-02-14T11:27:17.671Z,14.58
2018-02-14T11:28:27.593Z,14.59
2018-02-14T11:29:37.748Z,14.72
2018-02-14T11:30:48.014Z,14.84
2018-02-14T11:31:57.900Z,14.93
2018-02-14T11:33:08.050Z,14.95
2018-02-14T11:34:18.268Z,15.03
2018-02-14T11:35:28.424Z,14.99
2018-02-14T11:36:38.338Z,14.84
2018-02-14T11:37:48.483Z,14.67
2018-02-14T11:38:58.689Z,14.56
2018-02-14T11:40:08.867Z,14.51
2018-02-14T11:41:19.985Z,14.52
2018-02-14T11:42:29.992Z,14.44
2018-02-14T11:43:40.129Z,14.43
2018-02-14T11:44:50.313Z,14.14
2018-02-14T11:46:00.569Z,13.95
2018-02-14T11:47:10.713Z,13.94
2018-02-14T11:48:20.955Z,14.14
2018-02-14T11:49:30.839Z,14.26
2018-02-14T11:50:40.966Z,14.22
2018-02-14T11:51:51.186Z,14.34
2018-02-14T11:53:01.073Z,14.51
2018-02-14T11:54:11.245Z,14.62
2018-02-14T11:55:21.473Z,14.72
2018-02-14T11:56:31.616Z,14.9
2018-02-14T11:57:41.778Z,14.95
2018-02-14T11:58:51.956Z,15.05
2018-02-14T12:00:03.108Z,15.17
2018-02-14T12:01:12.981Z,15
2018-02-14T12:02:24.108Z,14.72
2018-02-14T12:03:34.280Z,14.67
2018-02-14T12:04:44.448Z,14.63
2018-02-14T12:05:54.616Z,14.67
2018-02-14T12:07:04.922Z,14.65
2018-02-14T12:08:15.099Z,14.59
2018-02-14T12:09:25.250Z,14.37
2018-02-14T12:10:35.411Z,14.39
2018-02-14T12:11:45.550Z,14.37
2018-02-14T12:12:55.724Z,14.39
2018-02-14T12:14:05.853Z,14.24
2018-02-14T12:15:16.109Z,14.32
2018-02-14T12:16:26.262Z,14.25
2018-02-14T12:17:36.453Z,14.13
2018-02-14T12:18:46.612Z,13.94
2018-02-14T12:19:56.824Z,13.86
2018-02-14T12:21:07.076Z,13.61
2018-02-14T12:22:17.346Z,13.56
2018-02-14T12:23:27.621Z,13.52
2018-02-14T12:24:37.845Z,13.31
2018-02-14T12:25:48.070Z,13.37
2018-02-14T12:26:58.235Z,13.4
2018-02-14T12:28:08.407Z,13.46
2018-02-14T12:29:18.646Z,13.52
2018-02-14T12:30:28.872Z,13.4
2018-02-14T12:31:39.039Z,13.44
2018-02-14T12:32:49.388Z,13.46
2018-02-14T12:33:59.282Z,13.59
2018-02-14T12:35:09.437Z,13.63
2018-02-14T12:36:19.578Z,13.58
2018-02-14T12:37:29.755Z,13.56
2018-02-14T12:38:39.905Z,13.64
2018-02-14T12:39:50.103Z,13.54
2018-02-14T12:41:00.274Z,13.54
2018-02-14T12:42:10.454Z,13.49
2018-02-14T12:43:20.637Z,13.34
2018-02-14T12:44:30.775Z,13.3
2018-02-14T12:45:40.965Z,13.09
2018-02-14T12:46:51.112Z,12.84
2018-02-14T12:48:00.996Z,12.68
2018-02-14T12:49:11.176Z,12.66
2018-02-14T12:50:21.325Z,12.71
2018-02-14T12:51:31.235Z,12.8
2018-02-14T12:52:41.370Z,12.62
2018-02-14T12:53:51.580Z,12.56
2018-02-14T12:55:01.728Z,12.41
2018-02-14T12:56:12.198Z,12.38
2018-02-14T12:57:22.368Z,12.24
2018-02-14T12:58:32.526Z,12.05
2018-02-14T12:59:42.741Z,12.07
2018-02-14T13:00:52.654Z,12.07
2018-02-14T13:02:02.993Z,12.11
2018-02-14T13:03:13.168Z,12.05
2018-02-14T13:04:23.427Z,11.9
2018-02-14T13:05:33.616Z,11.74
2018-02-14T13:06:43.846Z,11.61
2018-02-14T13:07:54.041Z,11.39
2018-02-14T13:09:04.308Z,11.28
2018-02-14T13:10:14.525Z,11.31
2018-02-14T13:11:24.758Z,11.12
2018-02-14T13:12:35.035Z,11
2018-02-14T13:13:44.668Z,10.91
2018-02-14T13:14:54.900Z,10.9
2018-02-14T13:16:05.051Z,10.83
2018-02-14T13:17:15.066Z,10.84
2018-02-14T13:18:25.236Z,10.76
2018-02-14T13:19:35.358Z,10.7
2018-02-14T13:20:45.594Z,10.61
2018-02-14T13:21:55.860Z,10.63
2018-02-14T13:23:06.043Z,10.57
2018-02-14T13:24:16.197Z,10.29
2018-02-14T13:25:26.386Z,10.27
2018-02-14T13:26:36.300Z,10.36
2018-02-14T13:27:46.442Z,10.17
2018-02-14T13:28:56.608Z,10.27
2018-02-14T13:30:06.792Z,10.18
2018-02-14T13:31:17.032Z,10.22
2018-02-14T13:32:27.265Z,10.02
2018-02-14T13:33:37.462Z,10.13
2018-02-14T13:34:47.695Z,9.96
2018-02-14T13:35:57.841Z,9.93
2018-02-14T13:37:07.617Z,9.99
2018-02-14T13:38:17.821Z,10.03
2018-02-14T13:39:27.763Z,9.84
2018-02-14T13:40:37.880Z,9.71
2018-02-14T13:41:47.809Z,9.52
2018-02-14T13:42:57.943Z,9.53
2018-02-14T13:44:08.171Z,9.37
2018-02-14T13:45:18.062Z,9.45
2018-02-14T13:46:28.201Z,9.26
2018-02-14T13:47:38.354Z,9.23
2018-02-14T13:48:48.530Z,9.12
2018-02-14T13:49:58.691Z,9
2018-02-14T13:51:08.950Z,8.89
2018-02-14T13:52:19.204Z,8.7
2018-02-14T13:53:29.339Z,8.7
2018-02-14T13:54:39.512Z,8.53
2018-02-14T13:55:49.710Z,8.45
2018-02-14T13:56:59.860Z,8.21
2018-02-14T13:58:10.065Z,7.98
2018-02-14T13:59:20.217Z,7.8
2018-02-14T14:00:30.377Z,7.64
2018-02-14T14:01:40.525Z,7.41
2018-02-14T14:02:50.717Z,7.26
2018-02-14T14:04:00.895Z,7.2
2018-02-14T14:05:11.057Z,7.1
2018-02-14T14:06:21.273Z,7.11
2018-02-14T14:07:31.477Z,7.03
2018-02-14T14:08:41.714Z,7.06
2018-02-14T14:09:52.145Z,6.85
2018-02-14T14:11:02.342Z,6.92
2018-02-14T14:12:12.525Z,6.75
2018-02-14T14:13:22.716Z,6.79
2018-02-14T14:14:32.863Z,6.77
2018-02-14T14:15:43.005Z,6.81
2018-02-14T14:16:53.156Z,6.75
2018-02-14T14:18:03.416Z,6.59
2018-02-14T14:19:13.590Z,6.69
2018-02-14T14:20:23.490Z,6.57
2018-02-14T14:21:33.614Z,6.48
2018-02-14T14:22:43.872Z,6.52
2018-02-14T14:23:54.066Z,6.48
2018-02-14T14:25:04.202Z,6.48
2018-02-14T14:26:14.348Z,6.35
2018-02-14T14:27:24.494Z,6.35
2018-02-14T14:28:34.615Z,6.31
2018-02-14T14:29:44.778Z,6.26
2018-02-14T14:30:54.975Z,6.21
2018-02-14T14:32:04.868Z,6.14
2018-02-14T14:33:14.831Z,6.08
2018-02-14T14:34:24.579Z,5.96
2018-02-14T14:35:34.845Z,5.98
2018-02-14T14:36:45.029Z,5.9
2018-02-14T14:37:55.271Z,5.71
2018-02-14T14:39:05.473Z,5.91
2018-02-14T14:40:15.607Z,5.86
2018-02-14T14:41:25.781Z,5.94
2018-02-14T14:42:35.916Z,5.79
2018-02-14T14:43:46.103Z,5.75
2018-02-14T14:44:56.235Z,5.67
2018-02-14T14:46:06.356Z,5.56
2018-02-14T14:47:16.558Z,5.68
2018-02-14T14:48:26.687Z,5.56
2018-02-14T14:49:36.856Z,5.53
2018-02-14T14:50:47.005Z,5.5
2018-02-14T14:51:57.152Z,5.51
2018-02-14T14:53:07.313Z,5.53
2018-02-14T14:54:17.443Z,5.51
2018-02-14T14:55:27.313Z,5.44
2018-02-14T14:56:37.235Z,5.51
2018-02-14T14:57:47.403Z,5.49
2018-02-14T14:58:57.531Z,5.46
2018-02-14T15:00:07.707Z,5.43
2018-02-14T15:01:17.887Z,5.41
2018-02-14T15:02:28.084Z,5.5
2018-02-14T15:03:37.982Z,5.56
2018-02-14T15:04:48.195Z,5.54
2018-02-14T15:05:58.368Z,5.56
2018-02-14T15:07:08.572Z,5.61
2018-02-14T15:08:18.723Z,5.59
2018-02-14T15:09:28.980Z,5.54
2018-02-14T15:10:39.187Z,5.51
2018-02-14T15:11:49.342Z,5.5
2018-02-14T15:12:59.533Z,5.31
2018-02-14T15:14:10.634Z,5.29
2018-02-14T15:15:20.812Z,5.33
2018-02-14T15:16:30.760Z,5.33
2018-02-14T15:17:40.993Z,5.29